aviador You're here:

KENW Decoded Metar

KENOSHA in WI, USA
Report Time2018-05-28 08:53:00
UTC Time2018-05-28 09:54:41
Flight Rules vfr VFR
Wind200° at 03 kt
W.Decomp.*RWY 25: 2.0 kt HW 2.2 kt LCW
RWY 15: 1.8 kt HW 2.4 kt RCW
W.Rank200° ranks 11
Current wind is below 200° avg. (8.6)
Visibility9999 m
Phenomena:N/A
Clouds:N/A
Expected CloudBase > 1,600 ft AGL from Temp-Dew spread
CeilingNone
Temp21°C (ISA +7)
Dew Point17°C (78% RH)
QNH1013 hPa
Density Alt1,847 ft
Elevation719 ft
Report Wrong Elevation
Raw Report
KENW 280853Z AUTO 20003KT 10SM CLR 21/17 A2990 RMK AO2 SLP119
T02060167 55000=

Extra information for KENW:More info

Metar Taf Metar & Taf Last 4 Metars F.Rules Stats Wind Profile Meteogram Temp Stats Airport Information Weather charts Add Link Nearby VenuesMetar ALERT Operation Metar Decoded Social comments

AIRNAV info for KENW